LRTC

Tulcea Airport

Tulcea, Romania
TAF LRTC 211100Z 2112/2121 03008KT CAVOK PROB40 TEMPO 2114/2119 SCT040CB
Issued Valid From Valid To
Jun-21 @ 11:00 UTC
(7 hours ago)
Jun-21 @ 12:00 UTC
(6 hours ago)
Jun-21 @ 21:00 UTC
(in 3 hours)
Jun-21 @ 12:00 to Jun-21 @ 21:00
TAF LRTC 211100Z 2112/2121 03008KT CAVOK
Wind Visibility Clouds Conditions
30° at 8 knots 10,000+ meters
  • No significant clouds
Temporary  (Probability 40%) Jun-21 @ 14:00 to Jun-21 @ 19:00
PROB40 TEMPO 2114/2119 SCT040CB
Clouds
  • Scattered at 4,000' AGL
TAF LRTC 211100Z 2112/2121 03008KT CAVOK PROB40 TEMPO 2114/2119 SCT040CB
Issued Jun-21 @ 11:00 UTC
(7 hours ago)
Valid From Jun-21 @ 12:00 UTC
(6 hours ago)
Valid To Jun-21 @ 21:00 UTC
(in 3 hours)
Jun-21 @ 12:00 - Jun-21 @ 21:00
Wind Visibility
30° at 8 knots 10,000+ meters
Clouds
  • No significant clouds
Conditions
Probability 40% Temporary Jun-21 @ 14:00 - Jun-21 @ 19:00
Clouds
  • Scattered at 4,000' AGL